sensor_id;sensor_type;location;lat;lon;timestamp;pressure;altitude;pressure_sealevel;temperature;humidity
66381;BME280;53177;52.648;1.214;2023-03-12T00:00:18;100271.63;;;3.21;95.23
66381;BME280;53177;52.648;1.214;2023-03-12T00:02:44;100275.09;;;3.20;95.32
66381;BME280;53177;52.648;1.214;2023-03-12T00:05:10;100259.44;;;3.20;95.30
66381;BME280;53177;52.648;1.214;2023-03-12T00:07:35;100265.53;;;3.21;95.72
66381;BME280;53177;52.648;1.214;2023-03-12T00:10:03;100259.44;;;3.20;95.87
66381;BME280;53177;52.648;1.214;2023-03-12T00:12:28;100254.19;;;3.16;96.22
66381;BME280;53177;52.648;1.214;2023-03-12T00:14:54;100255.94;;;3.18;96.32
66381;BME280;53177;52.648;1.214;2023-03-12T00:17:19;100255.97;;;3.14;96.60
66381;BME280;53177;52.648;1.214;2023-03-12T00:19:44;100250.72;;;3.12;97.13
66381;BME280;53177;52.648;1.214;2023-03-12T00:22:10;100248.13;;;3.17;97.14
66381;BME280;53177;52.648;1.214;2023-03-12T00:24:35;100248.97;;;3.19;97.05
66381;BME280;53177;52.648;1.214;2023-03-12T00:27:00;100249.84;;;3.12;97.47
66381;BME280;53177;52.648;1.214;2023-03-12T00:29:26;100242.88;;;3.11;98.15
66381;BME280;53177;52.648;1.214;2023-03-12T00:31:51;100242.88;;;3.11;97.75
66381;BME280;53177;52.648;1.214;2023-03-12T00:34:17;100226.34;;;3.13;98.52
66381;BME280;53177;52.648;1.214;2023-03-12T00:36:42;100223.72;;;3.15;98.42
66381;BME280;53177;52.648;1.214;2023-03-12T00:39:08;100219.38;;;3.15;98.38
66381;BME280;53177;52.648;1.214;2023-03-12T00:41:34;100210.66;;;3.15;98.54
66381;BME280;53177;52.648;1.214;2023-03-12T00:43:59;100206.31;;;3.12;98.24
66381;BME280;53177;52.648;1.214;2023-03-12T00:46:25;100198.47;;;3.11;98.43
66381;BME280;53177;52.648;1.214;2023-03-12T00:48:51;100207.19;;;3.16;98.49
66381;BME280;53177;52.648;1.214;2023-03-12T00:51:16;100207.19;;;3.11;98.90
66381;BME280;53177;52.648;1.214;2023-03-12T00:53:42;100199.34;;;3.13;99.20
66381;BME280;53177;52.648;1.214;2023-03-12T00:56:08;100198.50;;;3.14;98.85
66381;BME280;53177;52.648;1.214;2023-03-12T00:58:33;100192.41;;;3.13;99.39
66381;BME280;53177;52.648;1.214;2023-03-12T01:00:59;100187.16;;;3.15;99.12
66381;BME280;53177;52.648;1.214;2023-03-12T01:03:24;100168.00;;;3.17;99.14
66381;BME280;53177;52.648;1.214;2023-03-12T01:05:49;100163.66;;;3.16;99.11
66381;BME280;53177;52.648;1.214;2023-03-12T01:08:19;100156.66;;;3.20;99.37
66381;BME280;53177;52.648;1.214;2023-03-12T01:10:45;100156.69;;;3.17;99.75
66381;BME280;53177;52.648;1.214;2023-03-12T01:13:10;100153.19;;;3.16;99.78
66381;BME280;53177;52.648;1.214;2023-03-12T01:15:36;100141.00;;;3.20;99.55
66381;BME280;53177;52.648;1.214;2023-03-12T01:18:01;100140.13;;;3.19;99.40
66381;BME280;53177;52.648;1.214;2023-03-12T01:20:27;100144.47;;;3.19;100.00
66381;BME280;53177;52.648;1.214;2023-03-12T01:22:53;100138.41;;;3.17;99.69
66381;BME280;53177;52.648;1.214;2023-03-12T01:25:18;100133.19;;;3.12;99.69
66381;BME280;53177;52.648;1.214;2023-03-12T01:27:44;100127.09;;;3.18;99.59
66381;BME280;53177;52.648;1.214;2023-03-12T01:30:10;100119.25;;;3.18;99.94
66381;BME280;53177;52.648;1.214;2023-03-12T01:32:36;100125.31;;;3.18;99.80
66381;BME280;53177;52.648;1.214;2023-03-12T01:35:03;100127.94;;;3.23;99.91
66381;BME280;53177;52.648;1.214;2023-03-12T01:37:29;100125.31;;;3.20;99.84
66381;BME280;53177;52.648;1.214;2023-03-12T01:39:54;100123.56;;;3.19;99.85
66381;BME280;53177;52.648;1.214;2023-03-12T01:42:20;100116.63;;;3.18;100.00
66381;BME280;53177;52.648;1.214;2023-03-12T01:44:57;100113.13;;;3.22;100.00
66381;BME280;53177;52.648;1.214;2023-03-12T01:47:23;100111.41;;;3.21;100.00
66381;BME280;53177;52.648;1.214;2023-03-12T01:49:50;100108.75;;;3.22;100.00
66381;BME280;53177;52.648;1.214;2023-03-12T01:57:35;100100.94;;;3.22;100.00
66381;BME280;53177;52.648;1.214;2023-03-12T02:00:25;100102.66;;;3.23;100.00
66381;BME280;53177;52.648;1.214;2023-03-12T02:02:53;100097.44;;;3.26;100.00
66381;BME280;53177;52.648;1.214;2023-03-12T02:07:53;100091.38;;;3.20;100.00
66381;BME280;53177;52.648;1.214;2023-03-12T02:10:21;100087.00;;;3.22;100.00
66381;BME280;53177;52.648;1.214;2023-03-12T02:12:47;100085.25;;;3.24;100.00
66381;BME280;53177;52.648;1.214;2023-03-12T02:15:13;100077.41;;;3.25;100.00
66381;BME280;53177;52.648;1.214;2023-03-12T02:17:38;100072.16;;;3.25;100.00
66381;BME280;53177;52.648;1.214;2023-03-12T02:22:40;100058.25;;;3.28;100.00
66381;BME280;53177;52.648;1.214;2023-03-12T02:25:23;100053.00;;;3.29;100.00
66381;BME280;53177;52.648;1.214;2023-03-12T02:27:52;100053.84;;;3.33;100.00
66381;BME280;53177;52.648;1.214;2023-03-12T02:30:19;100054.75;;;3.30;100.00
66381;BME280;53177;52.648;1.214;2023-03-12T02:32:47;100047.78;;;3.31;100.00
66381;BME280;53177;52.648;1.214;2023-03-12T02:35:15;100039.94;;;3.29;100.00
66381;BME280;53177;52.648;1.214;2023-03-12T02:37:52;100038.22;;;3.28;100.00
66381;BME280;53177;52.648;1.214;2023-03-12T02:40:47;100021.66;;;3.31;100.00
66381;BME280;53177;52.648;1.214;2023-03-12T02:43:20;100022.50;;;3.33;100.00
66381;BME280;53177;52.648;1.214;2023-03-12T02:45:46;100010.34;;;3.32;100.00
66381;BME280;53177;52.648;1.214;2023-03-12T02:48:12;100012.03;;;3.37;100.00
66381;BME280;53177;52.648;1.214;2023-03-12T02:50:37;99999.00;;;3.36;100.00
66381;BME280;53177;52.648;1.214;2023-03-12T02:53:03;99996.38;;;3.34;100.00
66381;BME280;53177;52.648;1.214;2023-03-12T02:55:28;100002.47;;;3.35;100.00
66381;BME280;53177;52.648;1.214;2023-03-12T02:57:53;100001.59;;;3.34;100.00
66381;BME280;53177;52.648;1.214;2023-03-12T03:00:20;100002.47;;;3.35;100.00
66381;BME280;53177;52.648;1.214;2023-03-12T03:02:45;99992.03;;;3.32;100.00
66381;BME280;53177;52.648;1.214;2023-03-12T03:05:11;99993.78;;;3.31;100.00
66381;BME280;53177;52.648;1.214;2023-03-12T03:07:37;99992.91;;;3.35;100.00
66381;BME280;53177;52.648;1.214;2023-03-12T03:10:03;99985.94;;;3.36;100.00
66381;BME280;53177;52.648;1.214;2023-03-12T03:12:33;99986.78;;;3.39;100.00
66381;BME280;53177;52.648;1.214;2023-03-12T03:14:59;99976.31;;;3.42;100.00
66381;BME280;53177;52.648;1.214;2023-03-12T03:17:25;99970.22;;;3.43;100.00
66381;BME280;53177;52.648;1.214;2023-03-12T03:19:51;99985.84;;;3.50;100.00
66381;BME280;53177;52.648;1.214;2023-03-12T03:22:18;100001.53;;;3.50;100.00
66381;BME280;53177;52.648;1.214;2023-03-12T03:24:44;99994.53;;;3.52;100.00
66381;BME280;53177;52.648;1.214;2023-03-12T03:27:10;99998.88;;;3.53;100.00
66381;BME280;53177;52.648;1.214;2023-03-12T03:29:35;100003.25;;;3.51;100.00
66381;BME280;53177;52.648;1.214;2023-03-12T03:32:01;99998.88;;;3.53;100.00
66381;BME280;53177;52.648;1.214;2023-03-12T03:34:26;99997.97;;;3.60;100.00
66381;BME280;53177;52.648;1.214;2023-03-12T03:36:51;99992.72;;;3.63;100.00
66381;BME280;53177;52.648;1.214;2023-03-12T03:39:17;99989.19;;;3.70;100.00
66381;BME280;53177;52.648;1.214;2023-03-12T03:41:42;99976.94;;;3.73;100.00
66381;BME280;53177;52.648;1.214;2023-03-12T03:44:10;99969.03;;;3.85;100.00
66381;BME280;53177;52.648;1.214;2023-03-12T03:46:35;99970.75;;;3.86;100.00
66381;BME280;53177;52.648;1.214;2023-03-12T03:49:01;99988.16;;;3.92;100.00
66381;BME280;53177;52.648;1.214;2023-03-12T03:51:26;99985.47;;;4.03;100.00
66381;BME280;53177;52.648;1.214;2023-03-12T03:53:52;99977.59;;;4.06;100.00
66381;BME280;53177;52.648;1.214;2023-03-12T03:56:18;99984.53;;;4.10;100.00
66381;BME280;53177;52.648;1.214;2023-03-12T03:58:43;99995.00;;;4.10;100.00
66381;BME280;53177;52.648;1.214;2023-03-12T04:01:11;99999.34;;;4.14;100.00
66381;BME280;53177;52.648;1.214;2023-03-12T04:03:37;99993.16;;;4.18;100.00
66381;BME280;53177;52.648;1.214;2023-03-12T04:06:04;99997.50;;;4.23;100.00
66381;BME280;53177;52.648;1.214;2023-03-12T04:08:30;100014.03;;;4.28;100.00
66381;BME280;53177;52.648;1.214;2023-03-12T04:10:57;100001.78;;;4.32;100.00
66381;BME280;53177;52.648;1.214;2023-03-12T04:13:22;100005.22;;;4.38;100.00
66381;BME280;53177;52.648;1.214;2023-03-12T04:15:49;100004.34;;;4.38;100.00
66381;BME280;53177;52.648;1.214;2023-03-12T04:18:15;100006.09;;;4.39;100.00
66381;BME280;53177;52.648;1.214;2023-03-12T04:20:41;99997.31;;;4.41;100.00
66381;BME280;53177;52.648;1.214;2023-03-12T04:23:07;99993.84;;;4.43;100.00
66381;BME280;53177;52.648;1.214;2023-03-12T04:25:32;100001.66;;;4.44;100.00
66381;BME280;53177;52.648;1.214;2023-03-12T04:27:57;99992.94;;;4.47;100.00
66381;BME280;53177;52.648;1.214;2023-03-12T04:30:24;99986.84;;;4.43;100.00
66381;BME280;53177;52.648;1.214;2023-03-12T04:32:49;99990.22;;;4.51;100.00
66381;BME280;53177;52.648;1.214;2023-03-12T04:35:14;99998.09;;;4.51;100.00
66381;BME280;53177;52.648;1.214;2023-03-12T04:37:40;100006.81;;;4.52;100.00
66381;BME280;53177;52.648;1.214;2023-03-12T04:40:06;100008.56;;;4.53;100.00
66381;BME280;53177;52.648;1.214;2023-03-12T04:42:35;100023.38;;;4.54;100.00
66381;BME280;53177;52.648;1.214;2023-03-12T04:45:02;100022.53;;;4.53;100.00
66381;BME280;53177;52.648;1.214;2023-03-12T04:47:30;100031.97;;;4.66;100.00
66381;BME280;53177;52.648;1.214;2023-03-12T04:49:55;100023.28;;;4.64;100.00
66381;BME280;53177;52.648;1.214;2023-03-12T04:52:21;100031.09;;;4.67;100.00
66381;BME280;53177;52.648;1.214;2023-03-12T04:54:46;100031.94;;;4.71;100.00
66381;BME280;53177;52.648;1.214;2023-03-12T04:57:11;100042.44;;;4.68;100.00
66381;BME280;53177;52.648;1.214;2023-03-12T04:59:37;100035.34;;;4.77;100.00
66381;BME280;53177;52.648;1.214;2023-03-12T05:02:02;100044.91;;;4.83;100.00
66381;BME280;53177;52.648;1.214;2023-03-12T05:04:27;100036.97;;;4.90;100.00
66381;BME280;53177;52.648;1.214;2023-03-12T05:06:53;100046.59;;;4.88;100.00
66381;BME280;53177;52.648;1.214;2023-03-12T05:09:18;100046.53;;;4.95;100.00
66381;BME280;53177;52.648;1.214;2023-03-12T05:11:44;100042.19;;;4.95;100.00
66381;BME280;53177;52.648;1.214;2023-03-12T05:14:12;100036.84;;;5.01;100.00
66381;BME280;53177;52.648;1.214;2023-03-12T05:16:37;100035.06;;;5.05;100.00
66381;BME280;53177;52.648;1.214;2023-03-12T05:19:03;100029.78;;;5.09;100.00
66381;BME280;53177;52.648;1.214;2023-03-12T05:21:29;100028.78;;;5.18;100.00
66381;BME280;53177;52.648;1.214;2023-03-12T05:23:54;100036.69;;;5.16;100.00
66381;BME280;53177;52.648;1.214;2023-03-12T05:26:23;100024.38;;;5.23;100.00
66381;BME280;53177;52.648;1.214;2023-03-12T05:28:49;100020.91;;;5.21;100.00
66381;BME280;53177;52.648;1.214;2023-03-12T05:31:15;100024.19;;;5.36;100.00
66381;BME280;53177;52.648;1.214;2023-03-12T05:33:41;100015.50;;;5.34;100.00
66381;BME280;53177;52.648;1.214;2023-03-12T05:36:07;100004.91;;;5.42;100.00
66381;BME280;53177;52.648;1.214;2023-03-12T05:38:33;100006.50;;;5.52;100.00
66381;BME280;53177;52.648;1.214;2023-03-12T05:40:58;100006.50;;;5.52;100.00
66381;BME280;53177;52.648;1.214;2023-03-12T05:43:25;100021.31;;;5.58;100.00
66381;BME280;53177;52.648;1.214;2023-03-12T05:45:51;100023.00;;;5.59;100.00
66381;BME280;53177;52.648;1.214;2023-03-12T05:48:17;100016.00;;;5.59;100.00
66381;BME280;53177;52.648;1.214;2023-03-12T05:50:43;100028.34;;;5.54;100.00
66381;BME280;53177;52.648;1.214;2023-03-12T05:53:09;100030.00;;;5.60;100.00
66381;BME280;53177;52.648;1.214;2023-03-12T05:55:38;100035.16;;;5.66;100.00
66381;BME280;53177;52.648;1.214;2023-03-12T05:58:04;100044.91;;;5.55;100.00
66381;BME280;53177;52.648;1.214;2023-03-12T06:00:30;100046.56;;;5.65;100.00
66381;BME280;53177;52.648;1.214;2023-03-12T06:02:56;100047.44;;;5.64;100.00
66381;BME280;53177;52.648;1.214;2023-03-12T06:05:21;100046.50;;;5.68;100.00
66381;BME280;53177;52.648;1.214;2023-03-12T06:07:47;100047.38;;;5.67;100.00
66381;BME280;53177;52.648;1.214;2023-03-12T06:10:13;100048.25;;;5.67;100.00
66381;BME280;53177;52.648;1.214;2023-03-12T06:12:39;100047.44;;;5.62;100.00
66381;BME280;53177;52.648;1.214;2023-03-12T06:15:07;100043.03;;;5.66;100.00
66381;BME280;53177;52.648;1.214;2023-03-12T06:17:32;100048.25;;;5.67;100.00
66381;BME280;53177;52.648;1.214;2023-03-12T06:19:58;100056.97;;;5.69;100.00
66381;BME280;53177;52.648;1.214;2023-03-12T06:22:24;100056.13;;;5.69;100.00
66381;BME280;53177;52.648;1.214;2023-03-12T06:24:49;100051.75;;;5.66;100.00
66381;BME280;53177;52.648;1.214;2023-03-12T06:27:15;100044.81;;;5.64;100.00
66381;BME280;53177;52.648;1.214;2023-03-12T06:29:41;100047.44;;;5.64;100.00
66381;BME280;53177;52.648;1.214;2023-03-12T06:32:07;100047.47;;;5.61;100.00
66381;BME280;53177;52.648;1.214;2023-03-12T06:34:32;100043.00;;;5.67;100.00
66381;BME280;53177;52.648;1.214;2023-03-12T06:36:58;100050.06;;;5.62;100.00
66381;BME280;53177;52.648;1.214;2023-03-12T06:39:23;100048.34;;;5.60;100.00
66381;BME280;53177;52.648;1.214;2023-03-12T06:41:49;100044.75;;;5.67;100.00
66381;BME280;53177;52.648;1.214;2023-03-12T06:44:14;100044.81;;;5.65;100.00
66381;BME280;53177;52.648;1.214;2023-03-12T06:46:40;100062.19;;;5.72;100.00
66381;BME280;53177;52.648;1.214;2023-03-12T06:49:05;100061.25;;;5.75;100.00
66381;BME280;53177;52.648;1.214;2023-03-12T06:51:31;100062.97;;;5.79;100.00
66381;BME280;53177;52.648;1.214;2023-03-12T06:53:56;100069.09;;;5.79;100.00
66381;BME280;53177;52.648;1.214;2023-03-12T06:56:22;100062.97;;;5.77;100.00
66381;BME280;53177;52.648;1.214;2023-03-12T06:58:47;100058.50;;;5.85;100.00
66381;BME280;53177;52.648;1.214;2023-03-12T07:01:13;100068.09;;;5.90;100.00
66381;BME280;53177;52.648;1.214;2023-03-12T07:03:38;100063.72;;;5.88;100.00
66381;BME280;53177;52.648;1.214;2023-03-12T07:06:04;100067.09;;;5.97;100.00
66381;BME280;53177;52.648;1.214;2023-03-12T07:08:36;100074.97;;;5.98;100.00
66381;BME280;53177;52.648;1.214;2023-03-12T07:11:01;100078.38;;;6.03;100.00
66381;BME280;53177;52.648;1.214;2023-03-12T07:13:28;100073.13;;;6.05;100.00
66381;BME280;53177;52.648;1.214;2023-03-12T07:15:53;100075.75;;;6.03;100.00
66381;BME280;53177;52.648;1.214;2023-03-12T07:18:19;100078.31;;;6.06;100.00
66381;BME280;53177;52.648;1.214;2023-03-12T07:20:45;100081.75;;;6.11;100.00
66381;BME280;53177;52.648;1.214;2023-03-12T07:23:12;100079.03;;;6.17;100.00
66381;BME280;53177;52.648;1.214;2023-03-12T07:25:39;100075.53;;;6.20;100.00
66381;BME280;53177;52.648;1.214;2023-03-12T07:28:06;100072.81;;;6.24;100.00
66381;BME280;53177;52.648;1.214;2023-03-12T07:30:31;100081.53;;;6.28;100.00
66381;BME280;53177;52.648;1.214;2023-03-12T07:33:01;100077.09;;;6.28;100.00
66381;BME280;53177;52.648;1.214;2023-03-12T07:35:28;100092.75;;;6.38;100.00
66381;BME280;53177;52.648;1.214;2023-03-12T07:37:53;100089.19;;;6.40;100.00
66381;BME280;53177;52.648;1.214;2023-03-12T07:40:20;100097.00;;;6.43;100.00
66381;BME280;53177;52.648;1.214;2023-03-12T07:42:46;100096.88;;;6.51;100.00
66381;BME280;53177;52.648;1.214;2023-03-12T07:45:11;100095.81;;;6.62;100.00
66381;BME280;53177;52.648;1.214;2023-03-12T07:47:37;100108.06;;;6.65;100.00
66381;BME280;53177;52.648;1.214;2023-03-12T07:50:02;100094.81;;;6.71;100.00
66381;BME280;53177;52.648;1.214;2023-03-12T07:52:28;100101.00;;;6.67;100.00
66381;BME280;53177;52.648;1.214;2023-03-12T07:54:53;100109.66;;;6.73;100.00
66381;BME280;53177;52.648;1.214;2023-03-12T07:57:21;100110.50;;;6.75;100.00
66381;BME280;53177;52.648;1.214;2023-03-12T07:59:47;100115.75;;;6.75;100.00
66381;BME280;53177;52.648;1.214;2023-03-12T08:02:13;100119.16;;;6.82;100.00
66381;BME280;53177;52.648;1.214;2023-03-12T08:04:38;100111.13;;;6.90;100.00
66381;BME280;53177;52.648;1.214;2023-03-12T08:07:04;100118.81;;;7.02;100.00
66381;BME280;53177;52.648;1.214;2023-03-12T08:09:29;100134.34;;;7.14;100.00
66381;BME280;53177;52.648;1.214;2023-03-12T08:11:54;100131.63;;;7.17;100.00
66381;BME280;53177;52.648;1.214;2023-03-12T08:14:20;100131.69;;;7.14;100.00
66381;BME280;53177;52.648;1.214;2023-03-12T08:16:45;100135.06;;;7.23;100.00
66381;BME280;53177;52.648;1.214;2023-03-12T08:19:11;100147.34;;;7.21;100.00
66381;BME280;53177;52.648;1.214;2023-03-12T08:21:36;100126.38;;;7.18;100.00
66381;BME280;53177;52.648;1.214;2023-03-12T08:24:02;100122.03;;;7.16;100.00
66381;BME280;53177;52.648;1.214;2023-03-12T08:26:27;100128.19;;;7.13;100.00
66381;BME280;53177;52.648;1.214;2023-03-12T08:28:53;100128.19;;;7.13;100.00
66381;BME280;53177;52.648;1.214;2023-03-12T08:31:18;100143.97;;;7.13;100.00
66381;BME280;53177;52.648;1.214;2023-03-12T08:33:43;100131.63;;;7.20;100.00
66381;BME280;53177;52.648;1.214;2023-03-12T08:36:11;100126.28;;;7.23;100.00
66381;BME280;53177;52.648;1.214;2023-03-12T08:38:36;100133.16;;;7.31;100.00
66381;BME280;53177;52.648;1.214;2023-03-12T08:41:02;100137.34;;;7.40;100.00
66381;BME280;53177;52.648;1.214;2023-03-12T08:43:27;100152.00;;;7.53;100.00
66381;BME280;53177;52.648;1.214;2023-03-12T08:45:57;100160.72;;;7.55;100.00
66381;BME280;53177;52.648;1.214;2023-03-12T08:48:23;100163.22;;;7.61;99.98
66381;BME280;53177;52.648;1.214;2023-03-12T08:50:49;100164.22;;;7.57;100.00
66381;BME280;53177;52.648;1.214;2023-03-12T08:53:15;100162.41;;;7.61;99.67
66381;BME280;53177;52.648;1.214;2023-03-12T08:55:40;100163.19;;;7.64;98.91
66381;BME280;53177;52.648;1.214;2023-03-12T08:58:06;100161.53;;;7.60;98.86
66381;BME280;53177;52.648;1.214;2023-03-12T09:00:31;100140.41;;;7.63;98.96
66381;BME280;53177;52.648;1.214;2023-03-12T09:02:57;100149.97;;;7.67;98.33
66381;BME280;53177;52.648;1.214;2023-03-12T09:05:25;100142.88;;;7.71;98.86
66381;BME280;53177;52.648;1.214;2023-03-12T09:07:54;100141.03;;;7.76;98.54
66381;BME280;53177;52.648;1.214;2023-03-12T09:10:20;100130.59;;;7.71;97.64
66381;BME280;53177;52.648;1.214;2023-03-12T09:12:46;100143.69;;;7.74;97.53
66381;BME280;53177;52.648;1.214;2023-03-12T09:15:11;100138.28;;;7.80;97.54
66381;BME280;53177;52.648;1.214;2023-03-12T09:17:37;100142.63;;;7.83;97.04
66381;BME280;53177;52.648;1.214;2023-03-12T09:20:04;100135.53;;;7.87;97.29
66381;BME280;53177;52.648;1.214;2023-03-12T09:22:34;100136.13;;;8.01;96.55
66381;BME280;53177;52.648;1.214;2023-03-12T09:25:02;100136.22;;;7.96;96.67
66381;BME280;53177;52.648;1.214;2023-03-12T09:27:28;100139.63;;;8.01;96.17
66381;BME280;53177;52.648;1.214;2023-03-12T09:29:54;100132.47;;;8.06;95.42
66381;BME280;53177;52.648;1.214;2023-03-12T09:32:19;100128.06;;;8.08;95.11
66381;BME280;53177;52.648;1.214;2023-03-12T09:34:45;100131.25;;;8.21;94.95
66381;BME280;53177;52.648;1.214;2023-03-12T09:37:10;100139.88;;;8.29;94.49
66381;BME280;53177;52.648;1.214;2023-03-12T09:39:35;100137.72;;;8.46;93.67
66381;BME280;53177;52.648;1.214;2023-03-12T09:42:04;100139.34;;;8.53;93.12
66381;BME280;53177;52.648;1.214;2023-03-12T09:44:40;100151.09;;;8.75;93.38
66381;BME280;53177;52.648;1.214;2023-03-12T09:47:15;100145.13;;;9.03;93.77
66381;BME280;53177;52.648;1.214;2023-03-12T09:49:48;100144.91;;;9.10;92.79
66381;BME280;53177;52.648;1.214;2023-03-12T09:52:26;100142.06;;;9.19;92.39
66381;BME280;53177;52.648;1.214;2023-03-12T09:57:25;100142.69;;;9.27;90.25
66381;BME280;53177;52.648;1.214;2023-03-12T09:59:52;100143.38;;;9.36;90.61
66381;BME280;53177;52.648;1.214;2023-03-12T10:05:16;100142.44;;;9.38;89.33
66381;BME280;53177;52.648;1.214;2023-03-12T10:08:00;100141.44;;;9.42;89.88
66381;BME280;53177;52.648;1.214;2023-03-12T10:10:33;100140.50;;;9.45;88.80
66381;BME280;53177;52.648;1.214;2023-03-12T10:15:49;100138.72;;;9.45;87.91
66381;BME280;53177;52.648;1.214;2023-03-12T10:21:17;100129.97;;;9.43;87.78
66381;BME280;53177;52.648;1.214;2023-03-12T10:26:32;100125.47;;;9.47;87.94
66381;BME280;53177;52.648;1.214;2023-03-12T10:34:44;100145.66;;;9.49;87.24
66381;BME280;53177;52.648;1.214;2023-03-12T10:37:21;100153.56;;;9.49;86.54
66381;BME280;53177;52.648;1.214;2023-03-12T10:39:48;100164.94;;;9.51;86.66
66381;BME280;53177;52.648;1.214;2023-03-12T10:42:17;100154.06;;;9.63;86.90
66381;BME280;53177;52.648;1.214;2023-03-12T10:44:45;100148.59;;;9.69;87.32
66381;BME280;53177;52.648;1.214;2023-03-12T10:50:16;100154.00;;;9.96;87.03
66381;BME280;53177;52.648;1.214;2023-03-12T10:52:44;100150.00;;;10.12;85.36
66381;BME280;53177;52.648;1.214;2023-03-12T10:55:28;100159.06;;;10.33;84.76
66381;BME280;53177;52.648;1.214;2023-03-12T10:57:54;100148.03;;;10.48;84.02
66381;BME280;53177;52.648;1.214;2023-03-12T11:00:28;100153.69;;;10.36;81.70
66381;BME280;53177;52.648;1.214;2023-03-12T11:03:02;100147.03;;;10.52;83.10
66381;BME280;53177;52.648;1.214;2023-03-12T11:05:34;100158.47;;;10.52;82.75
66381;BME280;53177;52.648;1.214;2023-03-12T11:08:01;100139.66;;;10.34;80.93
66381;BME280;53177;52.648;1.214;2023-03-12T11:10:44;100141.66;;;10.25;80.64
66381;BME280;53177;52.648;1.214;2023-03-12T11:13:31;100129.50;;;10.20;81.02
66381;BME280;53177;52.648;1.214;2023-03-12T11:16:22;100130.09;;;10.30;81.77
66381;BME280;53177;52.648;1.214;2023-03-12T11:18:54;100125.56;;;10.35;80.95
66381;BME280;53177;52.648;1.214;2023-03-12T11:21:25;100115.56;;;10.43;81.60
66381;BME280;53177;52.648;1.214;2023-03-12T11:26:46;100111.50;;;10.60;81.03
66381;BME280;53177;52.648;1.214;2023-03-12T11:29:16;100099.59;;;10.46;80.09
66381;BME280;53177;52.648;1.214;2023-03-12T11:31:56;100109.63;;;10.36;79.95
66381;BME280;53177;52.648;1.214;2023-03-12T11:34:26;100105.97;;;10.40;81.08
66381;BME280;53177;52.648;1.214;2023-03-12T11:52:51;100068.44;;;11.08;77.87
66381;BME280;53177;52.648;1.214;2023-03-12T12:06:07;100073.53;;;11.60;77.12
66381;BME280;53177;52.648;1.214;2023-03-12T12:11:59;100072.44;;;11.67;75.26
66381;BME280;53177;52.648;1.214;2023-03-12T12:14:12;100087.44;;;11.67;74.95
66381;BME280;53177;52.648;1.214;2023-03-12T12:17:04;100071.78;;;11.61;74.41
66381;BME280;53177;52.648;1.214;2023-03-12T12:25:02;100087.31;;;11.47;76.04
66381;BME280;53177;52.648;1.214;2023-03-12T12:30:33;100084.47;;;11.28;76.00
66381;BME280;53177;52.648;1.214;2023-03-12T12:36:09;100075.38;;;11.35;78.23
66381;BME280;53177;52.648;1.214;2023-03-12T12:38:38;100076.50;;;11.53;77.70
66381;BME280;53177;52.648;1.214;2023-03-12T12:43:49;100074.03;;;11.48;75.16
66381;BME280;53177;52.648;1.214;2023-03-12T12:46:17;100079.16;;;11.53;76.43
66381;BME280;53177;52.648;1.214;2023-03-12T12:49:01;100069.41;;;11.53;76.29
66381;BME280;53177;52.648;1.214;2023-03-12T12:51:36;100073.78;;;11.54;75.49
66381;BME280;53177;52.648;1.214;2023-03-12T12:54:11;100081.50;;;11.60;74.67
66381;BME280;53177;52.648;1.214;2023-03-12T12:57:00;100075.88;;;11.69;75.30
66381;BME280;53177;52.648;1.214;2023-03-12T13:02:16;100080.00;;;11.78;76.05
66381;BME280;53177;52.648;1.214;2023-03-12T13:04:43;100070.56;;;11.71;75.89
66381;BME280;53177;52.648;1.214;2023-03-12T13:09:47;100065.06;;;11.76;74.83
66381;BME280;53177;52.648;1.214;2023-03-12T13:14:50;100050.56;;;11.86;76.49
66381;BME280;53177;52.648;1.214;2023-03-12T13:20:14;100046.22;;;11.83;75.45
66381;BME280;53177;52.648;1.214;2023-03-12T13:22:54;100045.63;;;11.98;73.83
66381;BME280;53177;52.648;1.214;2023-03-12T13:25:44;100041.69;;;12.08;73.64
66381;BME280;53177;52.648;1.214;2023-03-12T13:28:54;100027.34;;;12.36;74.09
66381;BME280;53177;52.648;1.214;2023-03-12T13:33:57;100021.09;;;12.58;72.26
66381;BME280;53177;52.648;1.214;2023-03-12T13:36:25;100017.44;;;12.61;72.09
66381;BME280;53177;52.648;1.214;2023-03-12T13:46:47;100000.28;;;12.69;72.16
66381;BME280;53177;52.648;1.214;2023-03-12T13:49:14;100007.56;;;12.64;72.03
66381;BME280;53177;52.648;1.214;2023-03-12T13:51:45;100006.97;;;12.58;72.11
66381;BME280;53177;52.648;1.214;2023-03-12T13:54:17;100015.56;;;12.43;71.57
66381;BME280;53177;52.648;1.214;2023-03-12T13:56:57;99998.91;;;12.39;71.23
66381;BME280;53177;52.648;1.214;2023-03-12T13:59:25;99997.72;;;12.46;73.71
66381;BME280;53177;52.648;1.214;2023-03-12T14:02:01;99998.03;;;12.39;71.00
66381;BME280;53177;52.648;1.214;2023-03-12T14:04:33;99993.41;;;12.44;71.54
66381;BME280;53177;52.648;1.214;2023-03-12T14:09:55;100007.59;;;12.43;71.41
66381;BME280;53177;52.648;1.214;2023-03-12T14:12:42;99996.66;;;12.50;71.81
66381;BME280;53177;52.648;1.214;2023-03-12T14:17:36;99989.16;;;12.40;70.49
66381;BME280;53177;52.648;1.214;2023-03-12T14:20:04;99986.34;;;12.44;72.26
66381;BME280;53177;52.648;1.214;2023-03-12T14:22:37;99998.31;;;12.53;73.51
66381;BME280;53177;52.648;1.214;2023-03-12T14:25:16;99992.59;;;12.42;72.17
66381;BME280;53177;52.648;1.214;2023-03-12T14:27:46;100000.06;;;12.54;73.24
66381;BME280;53177;52.648;1.214;2023-03-12T14:30:27;100010.28;;;12.63;73.31
66381;BME280;53177;52.648;1.214;2023-03-12T14:32:58;99988.25;;;12.61;71.56
66381;BME280;53177;52.648;1.214;2023-03-12T14:35:37;100001.53;;;12.61;70.52
66381;BME280;53177;52.648;1.214;2023-03-12T14:38:14;99980.44;;;12.58;70.41
66381;BME280;53177;52.648;1.214;2023-03-12T14:43:27;99971.75;;;12.54;71.16
66381;BME280;53177;52.648;1.214;2023-03-12T14:45:55;99965.94;;;12.66;71.57
66381;BME280;53177;52.648;1.214;2023-03-12T14:48:32;99957.25;;;12.63;71.78